sensor_id;sensor_type;location;lat;lon;timestamp;temperature;humidity
15257;DHT22;7731;50.720;6.912;2023-01-06T00:00:35;10.80;99.90
15257;DHT22;7731;50.720;6.912;2023-01-06T00:03:07;10.90;99.90
15257;DHT22;7731;50.720;6.912;2023-01-06T00:05:38;10.90;99.90
15257;DHT22;7731;50.720;6.912;2023-01-06T00:08:11;11.00;99.90
15257;DHT22;7731;50.720;6.912;2023-01-06T00:10:41;10.90;99.90
15257;DHT22;7731;50.720;6.912;2023-01-06T00:13:11;10.90;99.90
15257;DHT22;7731;50.720;6.912;2023-01-06T00:15:41;11.00;99.90
15257;DHT22;7731;50.720;6.912;2023-01-06T00:18:11;11.00;99.90
15257;DHT22;7731;50.720;6.912;2023-01-06T00:20:41;11.00;99.90
15257;DHT22;7731;50.720;6.912;2023-01-06T00:23:14;10.90;99.90
15257;DHT22;7731;50.720;6.912;2023-01-06T00:25:48;11.00;99.90
15257;DHT22;7731;50.720;6.912;2023-01-06T00:28:18;11.00;99.90
15257;DHT22;7731;50.720;6.912;2023-01-06T00:30:49;10.90;99.90
15257;DHT22;7731;50.720;6.912;2023-01-06T00:33:19;11.00;99.90
15257;DHT22;7731;50.720;6.912;2023-01-06T00:35:50;11.00;99.90
15257;DHT22;7731;50.720;6.912;2023-01-06T00:38:23;10.90;99.90
15257;DHT22;7731;50.720;6.912;2023-01-06T00:40:57;10.90;99.90
15257;DHT22;7731;50.720;6.912;2023-01-06T00:43:27;10.80;99.90
15257;DHT22;7731;50.720;6.912;2023-01-06T00:46:00;10.80;99.90
15257;DHT22;7731;50.720;6.912;2023-01-06T00:48:30;10.80;99.90
15257;DHT22;7731;50.720;6.912;2023-01-06T00:51:00;10.80;99.90
15257;DHT22;7731;50.720;6.912;2023-01-06T00:53:33;10.70;99.90
15257;DHT22;7731;50.720;6.912;2023-01-06T00:56:04;10.70;99.90
15257;DHT22;7731;50.720;6.912;2023-01-06T00:58:35;10.70;99.90
15257;DHT22;7731;50.720;6.912;2023-01-06T01:01:07;10.70;99.90
15257;DHT22;7731;50.720;6.912;2023-01-06T01:03:39;10.70;99.90
15257;DHT22;7731;50.720;6.912;2023-01-06T01:06:09;10.70;99.90
15257;DHT22;7731;50.720;6.912;2023-01-06T01:08:44;10.70;99.90
15257;DHT22;7731;50.720;6.912;2023-01-06T01:11:15;10.80;99.90
15257;DHT22;7731;50.720;6.912;2023-01-06T01:13:57;10.70;99.90
15257;DHT22;7731;50.720;6.912;2023-01-06T01:16:27;10.60;99.90
15257;DHT22;7731;50.720;6.912;2023-01-06T01:18:58;10.60;99.90
15257;DHT22;7731;50.720;6.912;2023-01-06T01:21:29;10.60;99.90
15257;DHT22;7731;50.720;6.912;2023-01-06T01:24:02;10.50;99.90
15257;DHT22;7731;50.720;6.912;2023-01-06T01:26:32;10.60;99.90
15257;DHT22;7731;50.720;6.912;2023-01-06T01:29:03;10.50;99.90
15257;DHT22;7731;50.720;6.912;2023-01-06T01:31:34;10.50;99.90
15257;DHT22;7731;50.720;6.912;2023-01-06T01:34:05;10.50;99.90
15257;DHT22;7731;50.720;6.912;2023-01-06T01:36:35;10.50;99.90
15257;DHT22;7731;50.720;6.912;2023-01-06T01:39:12;10.40;99.90
15257;DHT22;7731;50.720;6.912;2023-01-06T01:41:44;10.40;99.90
15257;DHT22;7731;50.720;6.912;2023-01-06T01:47:39;10.50;99.90
15257;DHT22;7731;50.720;6.912;2023-01-06T01:50:24;10.50;99.90
15257;DHT22;7731;50.720;6.912;2023-01-06T01:53:03;10.50;99.90
15257;DHT22;7731;50.720;6.912;2023-01-06T01:55:40;10.50;99.90
15257;DHT22;7731;50.720;6.912;2023-01-06T01:58:12;10.60;99.90
15257;DHT22;7731;50.720;6.912;2023-01-06T02:00:46;10.60;99.90
15257;DHT22;7731;50.720;6.912;2023-01-06T02:03:16;10.60;99.90
15257;DHT22;7731;50.720;6.912;2023-01-06T02:05:50;10.60;99.90
15257;DHT22;7731;50.720;6.912;2023-01-06T02:08:28;10.60;99.90
15257;DHT22;7731;50.720;6.912;2023-01-06T02:11:08;10.70;99.90
15257;DHT22;7731;50.720;6.912;2023-01-06T02:13:41;10.70;99.90
15257;DHT22;7731;50.720;6.912;2023-01-06T02:16:21;10.60;99.90
15257;DHT22;7731;50.720;6.912;2023-01-06T02:19:01;10.60;99.90
15257;DHT22;7731;50.720;6.912;2023-01-06T02:22:02;10.70;99.90
15257;DHT22;7731;50.720;6.912;2023-01-06T02:25:13;10.60;99.90
15257;DHT22;7731;50.720;6.912;2023-01-06T02:28:38;10.60;99.90
15257;DHT22;7731;50.720;6.912;2023-01-06T02:31:45;10.50;99.90
15257;DHT22;7731;50.720;6.912;2023-01-06T02:34:42;10.50;99.90
15257;DHT22;7731;50.720;6.912;2023-01-06T02:37:31;10.50;99.90
15257;DHT22;7731;50.720;6.912;2023-01-06T02:40:20;10.60;99.90
15257;DHT22;7731;50.720;6.912;2023-01-06T02:43:10;10.60;99.90
15257;DHT22;7731;50.720;6.912;2023-01-06T02:45:49;10.50;99.90
15257;DHT22;7731;50.720;6.912;2023-01-06T02:48:41;10.50;99.90
15257;DHT22;7731;50.720;6.912;2023-01-06T02:51:23;10.60;99.90
15257;DHT22;7731;50.720;6.912;2023-01-06T02:54:06;10.50;99.90
15257;DHT22;7731;50.720;6.912;2023-01-06T02:56:46;10.50;99.90
15257;DHT22;7731;50.720;6.912;2023-01-06T02:59:25;10.50;99.90
15257;DHT22;7731;50.720;6.912;2023-01-06T03:02:03;10.60;99.90
15257;DHT22;7731;50.720;6.912;2023-01-06T03:04:43;10.50;99.90
15257;DHT22;7731;50.720;6.912;2023-01-06T03:07:17;10.60;99.90
15257;DHT22;7731;50.720;6.912;2023-01-06T03:09:52;10.60;99.90
15257;DHT22;7731;50.720;6.912;2023-01-06T03:12:29;10.60;99.90
15257;DHT22;7731;50.720;6.912;2023-01-06T03:15:05;10.60;99.90
15257;DHT22;7731;50.720;6.912;2023-01-06T03:17:37;10.60;99.90
15257;DHT22;7731;50.720;6.912;2023-01-06T03:20:11;10.70;99.90
15257;DHT22;7731;50.720;6.912;2023-01-06T03:22:43;10.60;99.90
15257;DHT22;7731;50.720;6.912;2023-01-06T03:25:17;10.60;99.90
15257;DHT22;7731;50.720;6.912;2023-01-06T03:27:47;10.60;99.90
15257;DHT22;7731;50.720;6.912;2023-01-06T03:30:17;10.60;99.90
15257;DHT22;7731;50.720;6.912;2023-01-06T03:32:54;10.50;99.90
15257;DHT22;7731;50.720;6.912;2023-01-06T03:35:48;10.50;99.90
15257;DHT22;7731;50.720;6.912;2023-01-06T03:38:32;10.50;99.90
15257;DHT22;7731;50.720;6.912;2023-01-06T03:41:21;10.60;99.90
15257;DHT22;7731;50.720;6.912;2023-01-06T03:44:28;10.50;99.90
15257;DHT22;7731;50.720;6.912;2023-01-06T03:47:06;10.50;99.90
15257;DHT22;7731;50.720;6.912;2023-01-06T03:49:50;10.50;99.90
15257;DHT22;7731;50.720;6.912;2023-01-06T03:52:29;10.50;99.90
15257;DHT22;7731;50.720;6.912;2023-01-06T03:55:10;10.50;99.90
15257;DHT22;7731;50.720;6.912;2023-01-06T03:57:48;10.50;99.90
15257;DHT22;7731;50.720;6.912;2023-01-06T04:00:22;10.50;99.90
15257;DHT22;7731;50.720;6.912;2023-01-06T04:02:56;10.50;99.90
15257;DHT22;7731;50.720;6.912;2023-01-06T04:05:27;10.40;99.90
15257;DHT22;7731;50.720;6.912;2023-01-06T04:08:00;10.50;99.90
15257;DHT22;7731;50.720;6.912;2023-01-06T04:10:30;10.50;99.90
15257;DHT22;7731;50.720;6.912;2023-01-06T04:13:01;10.50;99.90
15257;DHT22;7731;50.720;6.912;2023-01-06T04:15:28;10.50;99.90
15257;DHT22;7731;50.720;6.912;2023-01-06T04:18:01;10.50;99.90
15257;DHT22;7731;50.720;6.912;2023-01-06T04:20:32;10.50;99.90
15257;DHT22;7731;50.720;6.912;2023-01-06T04:23:05;10.50;99.90
15257;DHT22;7731;50.720;6.912;2023-01-06T04:25:35;10.50;99.90
15257;DHT22;7731;50.720;6.912;2023-01-06T04:28:05;10.60;99.90
15257;DHT22;7731;50.720;6.912;2023-01-06T04:30:35;10.60;99.90
15257;DHT22;7731;50.720;6.912;2023-01-06T04:33:08;10.70;99.90
15257;DHT22;7731;50.720;6.912;2023-01-06T04:35:38;10.60;99.90
15257;DHT22;7731;50.720;6.912;2023-01-06T04:38:11;10.60;99.90
15257;DHT22;7731;50.720;6.912;2023-01-06T04:40:41;10.60;99.90
15257;DHT22;7731;50.720;6.912;2023-01-06T04:43:12;10.50;99.90
15257;DHT22;7731;50.720;6.912;2023-01-06T04:45:44;10.50;99.90
15257;DHT22;7731;50.720;6.912;2023-01-06T04:48:15;10.60;99.90
15257;DHT22;7731;50.720;6.912;2023-01-06T04:50:46;10.60;99.90
15257;DHT22;7731;50.720;6.912;2023-01-06T04:53:18;10.60;99.90
15257;DHT22;7731;50.720;6.912;2023-01-06T04:55:48;10.70;99.90
15257;DHT22;7731;50.720;6.912;2023-01-06T04:58:18;10.80;99.90
15257;DHT22;7731;50.720;6.912;2023-01-06T05:00:50;10.80;99.90
15257;DHT22;7731;50.720;6.912;2023-01-06T05:03:20;10.80;99.90
15257;DHT22;7731;50.720;6.912;2023-01-06T05:05:50;10.80;99.90
15257;DHT22;7731;50.720;6.912;2023-01-06T05:08:23;10.80;99.90
15257;DHT22;7731;50.720;6.912;2023-01-06T05:10:58;10.80;99.90
15257;DHT22;7731;50.720;6.912;2023-01-06T05:13:31;10.70;99.90
15257;DHT22;7731;50.720;6.912;2023-01-06T05:16:05;10.70;99.90
15257;DHT22;7731;50.720;6.912;2023-01-06T05:18:36;10.70;99.90
15257;DHT22;7731;50.720;6.912;2023-01-06T05:21:10;10.80;99.90
15257;DHT22;7731;50.720;6.912;2023-01-06T05:23:43;10.70;99.90
15257;DHT22;7731;50.720;6.912;2023-01-06T05:26:16;10.70;99.90
15257;DHT22;7731;50.720;6.912;2023-01-06T05:28:50;10.80;99.90
15257;DHT22;7731;50.720;6.912;2023-01-06T05:31:21;10.80;99.90
15257;DHT22;7731;50.720;6.912;2023-01-06T05:33:52;10.70;99.90
15257;DHT22;7731;50.720;6.912;2023-01-06T05:36:22;10.70;99.90
15257;DHT22;7731;50.720;6.912;2023-01-06T05:38:54;10.70;99.90
15257;DHT22;7731;50.720;6.912;2023-01-06T05:41:25;10.60;99.90
15257;DHT22;7731;50.720;6.912;2023-01-06T05:43:56;10.60;99.90
15257;DHT22;7731;50.720;6.912;2023-01-06T05:46:26;10.70;99.90
15257;DHT22;7731;50.720;6.912;2023-01-06T05:48:57;10.70;99.90
15257;DHT22;7731;50.720;6.912;2023-01-06T05:51:28;10.70;99.90
15257;DHT22;7731;50.720;6.912;2023-01-06T05:54:01;10.70;99.90
15257;DHT22;7731;50.720;6.912;2023-01-06T05:56:31;10.70;99.90
15257;DHT22;7731;50.720;6.912;2023-01-06T05:59:01;10.70;99.90
15257;DHT22;7731;50.720;6.912;2023-01-06T06:01:31;10.60;99.90
15257;DHT22;7731;50.720;6.912;2023-01-06T06:04:02;10.50;99.90
15257;DHT22;7731;50.720;6.912;2023-01-06T06:06:32;10.50;99.90
15257;DHT22;7731;50.720;6.912;2023-01-06T06:09:06;10.50;99.90
15257;DHT22;7731;50.720;6.912;2023-01-06T06:11:38;10.50;99.90
15257;DHT22;7731;50.720;6.912;2023-01-06T06:14:09;10.60;99.90
15257;DHT22;7731;50.720;6.912;2023-01-06T06:16:41;10.60;99.90
15257;DHT22;7731;50.720;6.912;2023-01-06T06:19:12;10.70;99.90
15257;DHT22;7731;50.720;6.912;2023-01-06T06:21:42;10.80;99.90
15257;DHT22;7731;50.720;6.912;2023-01-06T06:24:15;10.70;99.90
15257;DHT22;7731;50.720;6.912;2023-01-06T06:26:45;10.70;99.90
15257;DHT22;7731;50.720;6.912;2023-01-06T06:29:15;10.70;99.90
15257;DHT22;7731;50.720;6.912;2023-01-06T06:31:46;10.70;99.90
15257;DHT22;7731;50.720;6.912;2023-01-06T06:34:19;10.70;99.90
15257;DHT22;7731;50.720;6.912;2023-01-06T06:36:51;10.60;99.90
15257;DHT22;7731;50.720;6.912;2023-01-06T06:39:24;10.70;99.90
15257;DHT22;7731;50.720;6.912;2023-01-06T06:41:54;10.70;99.90
15257;DHT22;7731;50.720;6.912;2023-01-06T06:44:24;10.70;99.90
15257;DHT22;7731;50.720;6.912;2023-01-06T06:46:55;10.70;99.90
15257;DHT22;7731;50.720;6.912;2023-01-06T06:49:26;10.70;99.90
15257;DHT22;7731;50.720;6.912;2023-01-06T06:51:56;10.60;99.90
15257;DHT22;7731;50.720;6.912;2023-01-06T06:54:29;10.70;99.90
15257;DHT22;7731;50.720;6.912;2023-01-06T06:56:59;10.60;99.90
15257;DHT22;7731;50.720;6.912;2023-01-06T06:59:29;10.60;99.90
15257;DHT22;7731;50.720;6.912;2023-01-06T07:01:59;10.60;99.90
15257;DHT22;7731;50.720;6.912;2023-01-06T07:04:29;10.60;99.90
15257;DHT22;7731;50.720;6.912;2023-01-06T07:07:00;10.70;99.90
15257;DHT22;7731;50.720;6.912;2023-01-06T07:09:33;10.70;99.90
15257;DHT22;7731;50.720;6.912;2023-01-06T07:12:03;10.70;99.90
15257;DHT22;7731;50.720;6.912;2023-01-06T07:14:34;10.70;99.90
15257;DHT22;7731;50.720;6.912;2023-01-06T07:17:04;10.80;99.90
15257;DHT22;7731;50.720;6.912;2023-01-06T07:19:34;10.70;99.90
15257;DHT22;7731;50.720;6.912;2023-01-06T07:22:04;10.60;99.90
15257;DHT22;7731;50.720;6.912;2023-01-06T07:24:37;10.60;99.90
15257;DHT22;7731;50.720;6.912;2023-01-06T07:27:07;10.70;99.90
15257;DHT22;7731;50.720;6.912;2023-01-06T07:29:37;10.70;99.90
15257;DHT22;7731;50.720;6.912;2023-01-06T07:32:08;10.60;99.90
15257;DHT22;7731;50.720;6.912;2023-01-06T07:34:38;10.50;99.90
15257;DHT22;7731;50.720;6.912;2023-01-06T07:37:08;10.50;99.90
15257;DHT22;7731;50.720;6.912;2023-01-06T07:39:41;10.50;99.90
15257;DHT22;7731;50.720;6.912;2023-01-06T07:42:11;10.50;99.90
15257;DHT22;7731;50.720;6.912;2023-01-06T07:44:42;10.40;99.90
15257;DHT22;7731;50.720;6.912;2023-01-06T07:47:12;10.40;99.90
15257;DHT22;7731;50.720;6.912;2023-01-06T07:49:42;10.40;99.90
15257;DHT22;7731;50.720;6.912;2023-01-06T07:52:13;10.40;99.90
15257;DHT22;7731;50.720;6.912;2023-01-06T07:54:46;10.40;99.90
15257;DHT22;7731;50.720;6.912;2023-01-06T07:57:16;10.50;99.90
15257;DHT22;7731;50.720;6.912;2023-01-06T07:59:48;10.50;99.90
15257;DHT22;7731;50.720;6.912;2023-01-06T08:02:19;10.50;99.90
15257;DHT22;7731;50.720;6.912;2023-01-06T08:04:49;10.50;99.90
15257;DHT22;7731;50.720;6.912;2023-01-06T08:07:20;10.50;99.90
15257;DHT22;7731;50.720;6.912;2023-01-06T08:09:52;10.50;99.90
15257;DHT22;7731;50.720;6.912;2023-01-06T08:12:25;10.50;99.90
15257;DHT22;7731;50.720;6.912;2023-01-06T08:14:56;10.50;99.90
15257;DHT22;7731;50.720;6.912;2023-01-06T08:17:27;10.60;99.90
15257;DHT22;7731;50.720;6.912;2023-01-06T08:19:57;10.70;99.90
15257;DHT22;7731;50.720;6.912;2023-01-06T08:22:27;10.80;99.90
15257;DHT22;7731;50.720;6.912;2023-01-06T08:25:02;10.90;99.90
15257;DHT22;7731;50.720;6.912;2023-01-06T08:27:32;10.90;99.90
15257;DHT22;7731;50.720;6.912;2023-01-06T08:30:04;11.00;99.90
15257;DHT22;7731;50.720;6.912;2023-01-06T08:32:35;11.00;99.90
15257;DHT22;7731;50.720;6.912;2023-01-06T08:35:06;11.10;99.90
15257;DHT22;7731;50.720;6.912;2023-01-06T08:37:36;11.00;99.90
15257;DHT22;7731;50.720;6.912;2023-01-06T08:40:10;11.00;99.90
15257;DHT22;7731;50.720;6.912;2023-01-06T08:42:41;11.00;99.90
15257;DHT22;7731;50.720;6.912;2023-01-06T08:45:11;10.90;99.90
15257;DHT22;7731;50.720;6.912;2023-01-06T08:47:42;10.90;99.90
15257;DHT22;7731;50.720;6.912;2023-01-06T08:50:12;11.00;99.90
15257;DHT22;7731;50.720;6.912;2023-01-06T08:52:42;11.10;99.90
15257;DHT22;7731;50.720;6.912;2023-01-06T08:55:15;11.10;99.90
15257;DHT22;7731;50.720;6.912;2023-01-06T08:57:45;11.10;99.90
15257;DHT22;7731;50.720;6.912;2023-01-06T09:00:17;11.10;99.90
15257;DHT22;7731;50.720;6.912;2023-01-06T09:02:48;11.20;99.90
15257;DHT22;7731;50.720;6.912;2023-01-06T09:05:18;11.20;99.90
15257;DHT22;7731;50.720;6.912;2023-01-06T09:07:48;11.10;99.90
15257;DHT22;7731;50.720;6.912;2023-01-06T09:10:23;11.20;99.90
15257;DHT22;7731;50.720;6.912;2023-01-06T09:12:53;11.20;99.90
15257;DHT22;7731;50.720;6.912;2023-01-06T09:15:25;11.20;99.90
15257;DHT22;7731;50.720;6.912;2023-01-06T09:17:58;11.20;99.90
15257;DHT22;7731;50.720;6.912;2023-01-06T09:20:28;11.20;99.90
15257;DHT22;7731;50.720;6.912;2023-01-06T09:22:59;11.20;99.90
15257;DHT22;7731;50.720;6.912;2023-01-06T09:25:32;11.30;99.90
15257;DHT22;7731;50.720;6.912;2023-01-06T09:28:02;11.40;99.90
15257;DHT22;7731;50.720;6.912;2023-01-06T09:30:32;11.40;99.90
15257;DHT22;7731;50.720;6.912;2023-01-06T09:33:02;11.50;99.90
15257;DHT22;7731;50.720;6.912;2023-01-06T09:35:33;11.60;99.90
15257;DHT22;7731;50.720;6.912;2023-01-06T09:38:03;11.60;99.90
15257;DHT22;7731;50.720;6.912;2023-01-06T09:40:46;11.70;99.90
15257;DHT22;7731;50.720;6.912;2023-01-06T09:43:36;11.70;99.90
15257;DHT22;7731;50.720;6.912;2023-01-06T09:46:16;11.80;99.90
15257;DHT22;7731;50.720;6.912;2023-01-06T09:48:57;11.80;99.90
15257;DHT22;7731;50.720;6.912;2023-01-06T09:51:32;11.90;99.90
15257;DHT22;7731;50.720;6.912;2023-01-06T09:54:12;12.00;99.90
15257;DHT22;7731;50.720;6.912;2023-01-06T09:56:53;12.50;99.90
15257;DHT22;7731;50.720;6.912;2023-01-06T09:59:35;13.10;99.90
15257;DHT22;7731;50.720;6.912;2023-01-06T10:02:20;14.30;99.90
15257;DHT22;7731;50.720;6.912;2023-01-06T10:04:57;15.30;99.90
15257;DHT22;7731;50.720;6.912;2023-01-06T10:07:33;15.40;99.90
15257;DHT22;7731;50.720;6.912;2023-01-06T10:10:18;14.80;99.90
15257;DHT22;7731;50.720;6.912;2023-01-06T10:13:03;14.90;99.90
15257;DHT22;7731;50.720;6.912;2023-01-06T10:15:50;15.80;99.90
15257;DHT22;7731;50.720;6.912;2023-01-06T10:18:36;16.30;92.60
15257;DHT22;7731;50.720;6.912;2023-01-06T10:21:20;16.90;42.80
15257;DHT22;7731;50.720;6.912;2023-01-06T10:24:07;16.50;65.00
15257;DHT22;7731;50.720;6.912;2023-01-06T10:26:50;15.50;99.90
15257;DHT22;7731;50.720;6.912;2023-01-06T10:29:32;14.70;99.90
15257;DHT22;7731;50.720;6.912;2023-01-06T10:32:07;14.60;99.90
15257;DHT22;7731;50.720;6.912;2023-01-06T10:34:45;14.10;99.90
15257;DHT22;7731;50.720;6.912;2023-01-06T10:37:21;13.60;99.90
15257;DHT22;7731;50.720;6.912;2023-01-06T10:40:04;13.60;99.90
15257;DHT22;7731;50.720;6.912;2023-01-06T10:42:46;13.60;99.90
15257;DHT22;7731;50.720;6.912;2023-01-06T10:45:36;13.50;99.90
15257;DHT22;7731;50.720;6.912;2023-01-06T10:48:12;13.10;99.90
15257;DHT22;7731;50.720;6.912;2023-01-06T10:50:44;12.90;99.90
15257;DHT22;7731;50.720;6.912;2023-01-06T10:53:15;12.90;99.90
15257;DHT22;7731;50.720;6.912;2023-01-06T10:55:48;12.90;99.90
15257;DHT22;7731;50.720;6.912;2023-01-06T10:58:32;12.80;99.90
15257;DHT22;7731;50.720;6.912;2023-01-06T11:01:10;12.80;99.90
15257;DHT22;7731;50.720;6.912;2023-01-06T11:03:43;12.80;99.90
15257;DHT22;7731;50.720;6.912;2023-01-06T11:06:16;12.90;99.90
15257;DHT22;7731;50.720;6.912;2023-01-06T11:08:54;12.60;99.90
15257;DHT22;7731;50.720;6.912;2023-01-06T11:11:27;12.50;99.90
15257;DHT22;7731;50.720;6.912;2023-01-06T11:14:00;12.10;99.90
15257;DHT22;7731;50.720;6.912;2023-01-06T11:16:38;11.90;99.90
15257;DHT22;7731;50.720;6.912;2023-01-06T11:19:30;12.00;99.90
15257;DHT22;7731;50.720;6.912;2023-01-06T11:22:04;12.10;99.90
15257;DHT22;7731;50.720;6.912;2023-01-06T11:24:54;12.20;99.90
15257;DHT22;7731;50.720;6.912;2023-01-06T11:27:25;12.40;99.90
15257;DHT22;7731;50.720;6.912;2023-01-06T11:29:56;12.60;99.90
15257;DHT22;7731;50.720;6.912;2023-01-06T11:32:29;13.00;99.90
15257;DHT22;7731;50.720;6.912;2023-01-06T11:35:01;13.00;99.90
15257;DHT22;7731;50.720;6.912;2023-01-06T11:37:37;12.70;99.90
15257;DHT22;7731;50.720;6.912;2023-01-06T11:40:18;12.60;99.90
15257;DHT22;7731;50.720;6.912;2023-01-06T11:42:56;12.50;99.90
15257;DHT22;7731;50.720;6.912;2023-01-06T11:45:32;13.10;99.90
15257;DHT22;7731;50.720;6.912;2023-01-06T11:48:14;14.20;99.90
15257;DHT22;7731;50.720;6.912;2023-01-06T11:51:16;14.80;99.90
15257;DHT22;7731;50.720;6.912;2023-01-06T11:54:00;14.30;99.90
15257;DHT22;7731;50.720;6.912;2023-01-06T11:56:31;13.90;99.90
15257;DHT22;7731;50.720;6.912;2023-01-06T11:59:06;13.60;99.90
15257;DHT22;7731;50.720;6.912;2023-01-06T12:01:42;13.50;99.90
15257;DHT22;7731;50.720;6.912;2023-01-06T12:04:26;13.50;99.90
15257;DHT22;7731;50.720;6.912;2023-01-06T12:07:11;13.60;99.90
15257;DHT22;7731;50.720;6.912;2023-01-06T12:09:49;13.60;99.90
15257;DHT22;7731;50.720;6.912;2023-01-06T12:12:25;13.70;99.90
15257;DHT22;7731;50.720;6.912;2023-01-06T12:14:57;13.80;99.90
15257;DHT22;7731;50.720;6.912;2023-01-06T12:17:36;13.80;99.90
15257;DHT22;7731;50.720;6.912;2023-01-06T12:20:16;13.90;99.90
15257;DHT22;7731;50.720;6.912;2023-01-06T12:22:54;14.10;99.90
15257;DHT22;7731;50.720;6.912;2023-01-06T12:25:30;14.20;99.90
15257;DHT22;7731;50.720;6.912;2023-01-06T12:28:05;14.20;99.90
15257;DHT22;7731;50.720;6.912;2023-01-06T12:30:49;14.00;99.90
15257;DHT22;7731;50.720;6.912;2023-01-06T12:33:28;13.90;99.90
15257;DHT22;7731;50.720;6.912;2023-01-06T12:36:17;13.80;99.90
15257;DHT22;7731;50.720;6.912;2023-01-06T12:38:54;13.90;99.90
15257;DHT22;7731;50.720;6.912;2023-01-06T12:41:31;14.00;99.90
15257;DHT22;7731;50.720;6.912;2023-01-06T12:44:13;13.80;99.90
15257;DHT22;7731;50.720;6.912;2023-01-06T12:46:58;13.70;99.90
15257;DHT22;7731;50.720;6.912;2023-01-06T12:49:38;13.90;99.90
15257;DHT22;7731;50.720;6.912;2023-01-06T12:52:18;14.10;99.90
15257;DHT22;7731;50.720;6.912;2023-01-06T12:54:59;14.20;99.90
15257;DHT22;7731;50.720;6.912;2023-01-06T12:57:46;14.20;99.90
15257;DHT22;7731;50.720;6.912;2023-01-06T13:00:39;13.90;99.90
15257;DHT22;7731;50.720;6.912;2023-01-06T13:03:58;13.80;99.90
15257;DHT22;7731;50.720;6.912;2023-01-06T13:06:55;13.80;99.90
15257;DHT22;7731;50.720;6.912;2023-01-06T13:09:59;13.60;99.90
15257;DHT22;7731;50.720;6.912;2023-01-06T13:13:13;13.60;99.90
15257;DHT22;7731;50.720;6.912;2023-01-06T13:16:07;13.60;99.90
15257;DHT22;7731;50.720;6.912;2023-01-06T13:19:02;13.50;99.90
15257;DHT22;7731;50.720;6.912;2023-01-06T13:21:46;13.40;99.90
15257;DHT22;7731;50.720;6.912;2023-01-06T13:24:40;13.00;99.90
15257;DHT22;7731;50.720;6.912;2023-01-06T13:27:39;12.90;99.90
15257;DHT22;7731;50.720;6.912;2023-01-06T13:37:10;12.60;99.90
15257;DHT22;7731;50.720;6.912;2023-01-06T13:39:54;12.60;99.90
15257;DHT22;7731;50.720;6.912;2023-01-06T13:42:38;12.70;99.90
15257;DHT22;7731;50.720;6.912;2023-01-06T13:45:18;12.80;99.90
15257;DHT22;7731;50.720;6.912;2023-01-06T13:47:53;12.90;99.90
15257;DHT22;7731;50.720;6.912;2023-01-06T13:50:27;13.00;99.90
15257;DHT22;7731;50.720;6.912;2023-01-06T13:52:58;13.10;99.90
15257;DHT22;7731;50.720;6.912;2023-01-06T13:55:30;13.20;99.90
15257;DHT22;7731;50.720;6.912;2023-01-06T14:01:10;13.20;99.90
15257;DHT22;7731;50.720;6.912;2023-01-06T14:03:42;13.20;99.90
15257;DHT22;7731;50.720;6.912;2023-01-06T14:06:43;13.10;99.90
15257;DHT22;7731;50.720;6.912;2023-01-06T14:09:16;13.10;99.90
15257;DHT22;7731;50.720;6.912;2023-01-06T14:11:47;13.20;99.90
15257;DHT22;7731;50.720;6.912;2023-01-06T14:14:25;13.30;99.90
15257;DHT22;7731;50.720;6.912;2023-01-06T14:16:58;13.20;99.90
15257;DHT22;7731;50.720;6.912;2023-01-06T14:19:30;13.20;99.90
15257;DHT22;7731;50.720;6.912;2023-01-06T14:22:13;13.10;99.90
15257;DHT22;7731;50.720;6.912;2023-01-06T14:24:49;13.10;99.90
15257;DHT22;7731;50.720;6.912;2023-01-06T14:30:41;13.00;99.90
15257;DHT22;7731;50.720;6.912;2023-01-06T14:33:29;12.90;99.90
15257;DHT22;7731;50.720;6.912;2023-01-06T14:36:12;12.80;99.90
15257;DHT22;7731;50.720;6.912;2023-01-06T14:38:47;12.70;99.90
15257;DHT22;7731;50.720;6.912;2023-01-06T14:41:23;12.60;99.90
15257;DHT22;7731;50.720;6.912;2023-01-06T14:43:58;12.60;99.90
15257;DHT22;7731;50.720;6.912;2023-01-06T14:46:40;12.50;99.90
15257;DHT22;7731;50.720;6.912;2023-01-06T14:49:17;12.40;99.90
15257;DHT22;7731;50.720;6.912;2023-01-06T14:51:56;12.40;99.90
15257;DHT22;7731;50.720;6.912;2023-01-06T14:54:35;12.40;99.90
15257;DHT22;7731;50.720;6.912;2023-01-06T14:57:23;12.40;99.90
15257;DHT22;7731;50.720;6.912;2023-01-06T15:00:05;12.40;99.90
15257;DHT22;7731;50.720;6.912;2023-01-06T15:02:43;12.40;99.90
15257;DHT22;7731;50.720;6.912;2023-01-06T15:05:18;12.30;99.90
15257;DHT22;7731;50.720;6.912;2023-01-06T15:07:59;12.30;99.90
15257;DHT22;7731;50.720;6.912;2023-01-06T15:10:32;12.20;99.90
15257;DHT22;7731;50.720;6.912;2023-01-06T15:13:19;12.20;99.90
15257;DHT22;7731;50.720;6.912;2023-01-06T15:15:54;12.20;99.90
15257;DHT22;7731;50.720;6.912;2023-01-06T15:18:35;12.20;99.90
15257;DHT22;7731;50.720;6.912;2023-01-06T15:21:10;12.20;99.90
15257;DHT22;7731;50.720;6.912;2023-01-06T15:23:43;12.10;99.90
15257;DHT22;7731;50.720;6.912;2023-01-06T15:26:18;12.20;99.90
15257;DHT22;7731;50.720;6.912;2023-01-06T15:28:57;12.20;99.90
15257;DHT22;7731;50.720;6.912;2023-01-06T15:31:33;12.20;99.90
15257;DHT22;7731;50.720;6.912;2023-01-06T15:34:11;12.20;99.90
15257;DHT22;7731;50.720;6.912;2023-01-06T15:36:44;12.20;99.90
15257;DHT22;7731;50.720;6.912;2023-01-06T15:39:20;12.10;99.90
15257;DHT22;7731;50.720;6.912;2023-01-06T15:41:56;12.00;99.90
15257;DHT22;7731;50.720;6.912;2023-01-06T15:44:30;12.00;99.90
15257;DHT22;7731;50.720;6.912;2023-01-06T15:47:17;12.00;99.90
15257;DHT22;7731;50.720;6.912;2023-01-06T15:49:58;11.90;99.90
15257;DHT22;7731;50.720;6.912;2023-01-06T15:52:32;11.80;99.90
15257;DHT22;7731;50.720;6.912;2023-01-06T15:55:17;11.90;99.90
15257;DHT22;7731;50.720;6.912;2023-01-06T15:57:55;11.80;99.90
15257;DHT22;7731;50.720;6.912;2023-01-06T16:00:30;11.90;99.90
15257;DHT22;7731;50.720;6.912;2023-01-06T16:03:04;11.90;99.90
15257;DHT22;7731;50.720;6.912;2023-01-06T16:05:40;11.90;99.90
15257;DHT22;7731;50.720;6.912;2023-01-06T16:08:20;11.90;99.90
15257;DHT22;7731;50.720;6.912;2023-01-06T16:11:18;12.00;99.90
15257;DHT22;7731;50.720;6.912;2023-01-06T16:14:24;12.00;99.90
15257;DHT22;7731;50.720;6.912;2023-01-06T16:17:02;12.00;99.90
15257;DHT22;7731;50.720;6.912;2023-01-06T16:19:43;11.90;99.90
15257;DHT22;7731;50.720;6.912;2023-01-06T16:22:34;11.90;99.90
15257;DHT22;7731;50.720;6.912;2023-01-06T16:25:21;11.90;99.90
15257;DHT22;7731;50.720;6.912;2023-01-06T16:27:56;11.90;99.90
15257;DHT22;7731;50.720;6.912;2023-01-06T16:30:29;11.90;99.90
15257;DHT22;7731;50.720;6.912;2023-01-06T16:33:02;11.80;99.90
15257;DHT22;7731;50.720;6.912;2023-01-06T16:35:34;11.80;99.90
15257;DHT22;7731;50.720;6.912;2023-01-06T16:38:09;11.80;99.90
15257;DHT22;7731;50.720;6.912;2023-01-06T16:40:42;11.80;99.90
15257;DHT22;7731;50.720;6.912;2023-01-06T16:43:13;11.70;99.90
15257;DHT22;7731;50.720;6.912;2023-01-06T16:45:44;11.60;99.90
15257;DHT22;7731;50.720;6.912;2023-01-06T16:48:17;11.70;99.90
15257;DHT22;7731;50.720;6.912;2023-01-06T16:50:48;11.70;99.90
15257;DHT22;7731;50.720;6.912;2023-01-06T16:53:24;11.70;99.90
15257;DHT22;7731;50.720;6.912;2023-01-06T16:55:59;11.70;99.90
15257;DHT22;7731;50.720;6.912;2023-01-06T16:58:30;11.60;99.90